Salem, OR (97301)

9:09 PM PDT on August 31, 2015 (GMT -0700)
Center & Cordon NE | | Change Station
CLOSE
Current Station
Personal Weather Station
Location: Salem, OR
Elevation: 210 ft
Nearby Weather Stations

Elev 210 ft 44.94 °N, 122.96 °W | Updated 9 seconds ago

Overcast
Overcast
65.2 °F
Feels Like 65.2 °F
N
1.7
Wind Variable Wind from WNW
Gusts 2.3 mph

Today
High -- | Low -- °F
--% Chance of Precip.
Yesterday
High -- | Low -- °F
Precip. -- in
6:32 AM 7:50 PM
Waning Gibbous, 92% visible
Pressure 29.97 in
Visibility 10.0 miles
Clouds Overcast 5000 ft
Dew Point 54 °F
Humidity 68%
Rainfall 0.00 in
Snow Depth Not available.
UV 0 out of 12
Pollen 3.30 out of 12
Air Quality Not available.
Flu Activity Not available.
METAR KSLE 010356Z 28006KT 10SM OVC050 19/12 A2998 RMK AO2 SLP149 T01940117
Pressure 29.97 in
Visibility 10.0 miles
Clouds Overcast 5000 ft
Dew Point 54 °F
Humidity 68%
Rainfall 0.00 in
Snow Depth Not available.
UV 0 out of 12
Pollen 3.30 out of 12
Air Quality Not available.
Flu Activity Not available.
METAR KSLE 010356Z 28006KT 10SM OVC050 19/12 A2998 RMK AO2 SLP149 T01940117

10-Day Weather Forecast

×

Almanac

Astronomy

Aug. 31, 2015 Rise Set
Actual Time
Civil Twilight
Nautical Twilight
Astronomical Twilight
Moon
Length of Visible Light
Length of Day
Tomorrow will be .
, % of the Moon is Illuminated

Today's Extremes

State Highs State Lows

Community

WunderPhotos

Upload Photos

1,851,477 photos uploaded!

WunderBlogs® & News

Nearby

Air Quality

  Air Quality AQ Index Pollutant
Not available.

Snow Depth

Station Depth Elevation

Earthquake Activity

City Distance Mag. Time & Date
Minimum magnitude displayed is 2.5.

Coastal Water Temperatures

Place Temperature

Stations

Nearby Weather Stations

Station Location Temp. Windchill Dew Point Humidity Wind Precip. Elev Updated Type